Time;durP1;ratioP1;P1;durP2;ratioP2;P2;SDS_P1;SDS_P2;PMS_P1;PMS_P2;Temp;Humidity;BMP_temperature;BMP_pressure;BME280_temperature;BME280_humidity;BME280_pressure;Samples;Min_cycle;Max_cycle;Signal;HPM_P1;HPM_P2
2021/08/10 00:02:18;;;;;;;6.13;2.60;;;;;;;17.84;60.64;99827.88;6038199;23;20156;-80
2021/08/10 00:04:44;;;;;;;4.43;2.70;;;;;;;17.87;60.01;99821.44;6037640;23;20082;-80
2021/08/10 00:07:11;;;;;;;4.93;2.97;;;;;;;17.87;60.32;99824.09;6037636;23;20054;-80
2021/08/10 00:09:38;;;;;;;4.80;2.90;;;;;;;17.88;60.23;99826.63;6037825;23;20102;-81
2021/08/10 00:12:05;;;;;;;5.80;2.80;;;;;;;17.90;60.55;99827.34;6039226;23;20028;-81
2021/08/10 00:14:43;;;;;;;4.35;2.88;;;;;;;17.88;61.37;99825.78;6037931;23;20106;-81
2021/08/10 00:17:10;;;;;;;6.05;3.38;;;;;;;17.94;60.70;99825.28;6037815;23;20038;-81
2021/08/10 00:19:37;;;;;;;4.15;2.72;;;;;;;17.95;60.62;99824.28;6039578;23;20390;-81
2021/08/10 00:22:03;;;;;;;4.75;2.47;;;;;;;17.95;60.63;99821.63;6038083;23;20051;-81
2021/08/10 00:24:40;;;;;;;5.47;3.00;;;;;;;17.93;61.62;99826.22;6037891;23;20402;-81
2021/08/10 00:27:07;;;;;;;5.25;2.60;;;;;;;17.97;60.85;99820.50;6037578;23;20058;-81
2021/08/10 00:29:34;;;;;;;5.13;2.70;;;;;;;17.97;60.78;99825.84;6037760;23;20065;-81
2021/08/10 00:32:11;;;;;;;4.68;2.53;;;;;;;17.96;61.43;99820.63;6037495;23;20102;-81
2021/08/10 00:34:38;;;;;;;5.68;2.72;;;;;;;18.01;60.82;99813.09;6038055;23;20050;-81
2021/08/10 00:37:06;;;;;;;5.97;2.80;;;;;;;18.02;60.82;99814.75;6037849;23;20054;-81
2021/08/10 00:39:35;;;;;;;4.03;2.92;;;;;;;18.03;61.17;99820.94;6037632;23;20030;-81
2021/08/10 00:42:02;;;;;;;5.45;2.65;;;;;;;18.04;60.61;99815.47;6037541;23;20066;-81
2021/08/10 00:44:30;;;;;;;6.88;2.50;;;;;;;18.04;60.85;99810.16;6038757;23;20027;-81
2021/08/10 00:46:57;;;;;;;5.85;2.55;;;;;;;18.06;60.55;99812.69;6039057;23;20027;-81
2021/08/10 00:49:26;;;;;;;5.53;2.78;;;;;;;18.06;61.10;99812.69;6037300;23;20106;-81
2021/08/10 00:51:53;;;;;;;3.92;2.55;;;;;;;18.06;60.46;99810.84;6037795;23;20103;-81
2021/08/10 00:54:20;;;;;;;6.30;2.60;;;;;;;18.04;60.27;99815.47;6037691;23;20032;-81
2021/08/10 00:56:47;;;;;;;5.20;2.65;;;;;;;18.03;60.36;99804.97;6037927;23;20102;-81
2021/08/10 00:59:17;;;;;;;4.68;2.83;;;;;;;18.01;60.90;99806.94;6037592;23;20119;-81
2021/08/10 01:01:44;;;;;;;5.18;2.67;;;;;;;17.99;60.61;99809.72;6037447;23;20118;-84
2021/08/10 01:04:11;;;;;;;4.20;2.97;;;;;;;17.95;60.60;99811.78;6036788;23;20023;-84
2021/08/10 01:06:54;;;;;;;5.20;2.92;;;;;;;17.88;61.64;99808.00;6038729;23;20082;-85
2021/08/10 01:09:33;;;;;;;5.13;3.00;;;;;;;17.85;61.40;99802.94;6038644;23;20027;-85
2021/08/10 01:12:08;;;;;;;6.35;2.95;;;;;;;17.81;61.69;99806.84;6038935;23;20407;-85
2021/08/10 01:14:42;;;;;;;7.22;3.08;;;;;;;17.77;61.96;99803.59;6038591;23;20096;-85
2021/08/10 01:17:18;;;;;;;6.25;3.42;;;;;;;17.74;62.03;99801.22;6038914;23;20038;-85
2021/08/10 01:20:17;;;;;;;5.25;3.28;;;;;;;17.70;62.22;99794.47;6039342;23;20031;-81
2021/08/10 01:22:49;;;;;;;5.40;3.15;;;;;;;17.69;61.82;99795.44;6039552;23;20070;-81
2021/08/10 01:25:38;;;;;;;6.43;3.20;;;;;;;17.66;62.00;99793.03;6039467;23;20103;-80
2021/08/10 01:28:42;;;;;;;5.32;3.35;;;;;;;17.60;62.61;99793.59;6040788;23;20419;-81
2021/08/10 01:31:23;;;;;;;3.67;2.78;;;;;;;17.58;62.23;99791.88;6039069;23;20066;-80
2021/08/10 01:34:10;;;;;;;7.68;3.10;;;;;;;17.57;62.28;99789.38;6038966;23;20075;-80
2021/08/10 01:36:39;;;;;;;4.88;2.90;;;;;;;17.56;61.51;99791.19;6039058;23;20098;-80
2021/08/10 01:39:07;;;;;;;6.82;3.70;;;;;;;17.54;61.82;99784.31;6039198;23;20103;-81
2021/08/10 01:41:36;;;;;;;6.03;3.47;;;;;;;17.53;62.17;99787.94;6038687;23;20023;-81
2021/08/10 01:44:05;;;;;;;6.00;3.40;;;;;;;17.52;62.45;99783.56;6039022;23;20098;-81
2021/08/10 01:46:32;;;;;;;6.25;3.42;;;;;;;17.51;62.25;99784.56;6038815;23;20098;-81
2021/08/10 01:49:01;;;;;;;6.18;3.60;;;;;;;17.51;62.51;99780.09;6039197;23;20459;-81
2021/08/10 01:51:32;;;;;;;5.93;3.40;;;;;;;17.49;62.98;99776.69;6038915;23;20062;-81
2021/08/10 01:54:02;;;;;;;5.95;3.47;;;;;;;17.51;62.26;99779.22;6038323;23;20027;-85
2021/08/10 01:56:43;;;;;;;4.38;3.25;;;;;;;17.46;63.26;99782.31;6038835;23;20027;-85
2021/08/10 01:59:11;;;;;;;3.88;3.40;;;;;;;17.51;62.24;99785.41;6038421;23;20095;-85
2021/08/10 02:02:12;;;;;;;5.47;3.40;;;;;;;17.45;63.37;99791.25;6038272;23;20062;-85
2021/08/10 02:04:41;;;;;;;5.22;3.58;;;;;;;17.47;62.48;99776.00;6038251;23;20355;-85
2021/08/10 02:07:12;;;;;;;5.90;3.40;;;;;;;17.45;62.99;99783.25;6038815;23;20023;-85
2021/08/10 02:09:39;;;;;;;4.22;3.22;;;;;;;17.44;62.33;99778.91;6039752;23;20102;-85
2021/08/10 02:12:16;;;;;;;5.38;3.42;;;;;;;17.40;63.39;99774.84;6038741;23;20411;-85
2021/08/10 02:14:44;;;;;;;6.85;3.45;;;;;;;17.43;62.54;99779.91;6038282;23;20071;-85
2021/08/10 02:17:15;;;;;;;4.75;3.70;;;;;;;17.39;63.14;99778.47;6038301;23;20023;-85
2021/08/10 02:19:43;;;;;;;6.20;3.80;;;;;;;17.39;62.68;99781.13;6038708;23;20481;-85
2021/08/10 02:22:13;;;;;;;5.95;3.63;;;;;;;17.37;63.05;99777.75;6038164;23;20023;-85
2021/08/10 02:24:50;;;;;;;6.05;3.83;;;;;;;17.36;63.72;99781.38;6038222;23;20106;-85
2021/08/10 02:27:26;;;;;;;6.07;3.70;;;;;;;17.35;63.71;99780.56;6038518;23;20098;-86
2021/08/10 02:29:54;;;;;;;5.40;3.83;;;;;;;17.36;62.96;99789.38;6038282;23;20078;-85
2021/08/10 02:32:25;;;;;;;5.70;3.50;;;;;;;17.34;63.21;99783.34;6038129;23;20090;-85
2021/08/10 02:34:53;;;;;;;7.00;4.03;;;;;;;17.32;63.28;99794.94;6038281;23;20118;-85
2021/08/10 02:37:21;;;;;;;5.93;3.83;;;;;;;17.32;63.23;99783.47;6039567;23;20110;-85
2021/08/10 02:39:53;;;;;;;5.07;3.72;;;;;;;17.29;63.92;99781.94;6038578;23;20383;-85
2021/08/10 02:42:23;;;;;;;5.38;3.65;;;;;;;17.28;63.71;99782.91;6037824;23;20059;-85
2021/08/10 02:44:56;;;;;;;6.70;3.90;;;;;;;17.28;64.19;99774.06;6036716;23;20047;-85
2021/08/10 02:47:24;;;;;;;6.22;3.95;;;;;;;17.30;63.36;99774.78;6036917;23;20106;-85
2021/08/10 02:49:51;;;;;;;6.75;3.65;;;;;;;17.30;63.21;99772.97;6037672;23;20116;-85
2021/08/10 02:52:18;;;;;;;7.85;3.90;;;;;;;17.30;63.41;99762.31;6038697;23;20047;-81
2021/08/10 02:54:46;;;;;;;6.53;3.80;;;;;;;17.30;63.91;99756.16;6038370;23;20400;-81
2021/08/10 02:57:26;;;;;;;4.93;3.47;;;;;;;17.29;64.41;99767.78;6038062;23;20058;-81
2021/08/10 03:00:04;;;;;;;5.60;3.78;;;;;;;17.29;64.41;99781.06;6038280;23;20058;-80
2021/08/10 03:02:48;;;;;;;6.20;3.80;;;;;;;17.29;64.30;99781.94;6038489;23;20054;-80
2021/08/10 03:05:20;;;;;;;6.07;3.92;;;;;;;17.31;63.83;99787.13;6038563;23;20035;-80
2021/08/10 03:07:56;;;;;;;5.63;4.07;;;;;;;17.26;64.71;99792.81;6038188;23;20110;-81
2021/08/10 03:10:30;;;;;;;4.93;3.70;;;;;;;17.27;64.58;99793.69;6038692;23;20410;-81
2021/08/10 03:12:59;;;;;;;7.30;3.83;;;;;;;17.28;63.70;99790.88;6037930;23;20028;-85
2021/08/10 03:15:28;;;;;;;6.32;3.95;;;;;;;17.28;64.09;99790.03;6037460;23;20063;-85
2021/08/10 03:18:08;;;;;;;8.30;4.50;;;;;;;17.24;64.90;99789.47;6037497;23;20106;-85
2021/08/10 03:20:37;;;;;;;5.43;3.83;;;;;;;17.27;64.37;99783.84;6038200;23;20098;-80
2021/08/10 03:23:05;;;;;;;5.95;3.90;;;;;;;17.28;64.19;99780.25;6038019;23;20047;-80
2021/08/10 03:25:33;;;;;;;5.97;3.80;;;;;;;17.28;64.14;99780.25;6037875;23;20114;-80
2021/08/10 03:28:02;;;;;;;6.72;3.72;;;;;;;17.27;64.78;99773.22;6038444;23;20103;-80
2021/08/10 03:30:30;;;;;;;7.57;4.05;;;;;;;17.27;64.19;99773.22;6037826;23;20106;-81
2021/08/10 03:33:01;;;;;;;10.02;4.10;;;;;;;17.27;64.79;99770.56;6038154;23;20407;-85
2021/08/10 03:35:29;;;;;;;6.30;3.95;;;;;;;17.28;64.29;99771.41;6037144;23;20097;-85
2021/08/10 03:37:58;;;;;;;6.20;4.00;;;;;;;17.28;64.78;99777.59;6038256;23;20057;-81
2021/08/10 03:40:25;;;;;;;6.07;4.05;;;;;;;17.29;64.36;99779.28;6038205;23;20077;-81
2021/08/10 03:42:54;;;;;;;5.50;3.83;;;;;;;17.29;64.88;99775.75;6037776;23;20098;-81
2021/08/10 03:45:23;;;;;;;9.35;4.50;;;;;;;17.31;64.47;99781.81;6037781;23;20031;-80
2021/08/10 03:47:51;;;;;;;6.45;4.15;;;;;;;17.30;64.40;99783.59;6038448;23;20412;-80
2021/08/10 03:50:25;;;;;;;7.82;4.60;;;;;;;17.28;65.19;99782.06;6040031;23;20098;-80
2021/08/10 03:52:52;;;;;;;5.93;3.78;;;;;;;17.31;64.49;99773.81;6038009;23;20079;-80
2021/08/10 03:55:19;;;;;;;6.55;4.57;;;;;;;17.30;64.62;99778.28;6037913;23;20079;-81
2021/08/10 03:57:53;;;;;;;7.80;4.68;;;;;;;17.28;65.55;99768.75;6038396;23;20398;-80
2021/08/10 04:00:21;;;;;;;6.65;4.32;;;;;;;17.32;64.66;99765.69;6038176;23;20065;-80
2021/08/10 04:02:55;;;;;;;8.57;4.53;;;;;;;17.31;65.26;99764.00;6040427;23;20102;-80
2021/08/10 04:05:23;;;;;;;8.25;4.68;;;;;;;17.34;64.66;99760.22;6037906;23;20046;-80
2021/08/10 04:07:50;;;;;;;7.28;4.20;;;;;;;17.35;64.63;99755.78;6038378;23;20488;-80
2021/08/10 04:10:17;;;;;;;6.55;4.70;;;;;;;17.33;64.68;99758.56;6037996;23;20098;-80
2021/08/10 04:12:44;;;;;;;6.25;4.53;;;;;;;17.34;64.89;99756.75;6037922;23;20098;-80
2021/08/10 04:15:13;;;;;;;7.50;4.75;;;;;;;17.32;65.13;99749.72;6038132;23;20458;-80
2021/08/10 04:17:41;;;;;;;6.88;4.53;;;;;;;17.33;64.97;99761.22;6038350;23;20067;-80
2021/08/10 04:20:08;;;;;;;9.50;4.60;;;;;;;17.34;64.95;99760.22;6037879;23;20094;-80
2021/08/10 04:22:35;;;;;;;7.13;4.70;;;;;;;17.36;65.18;99760.09;6037738;23;20090;-80
2021/08/10 04:25:02;;;;;;;9.15;4.65;;;;;;;17.36;65.17;99768.94;6037624;23;20111;-80
2021/08/10 04:27:29;;;;;;;6.60;4.32;;;;;;;17.36;65.19;99774.25;6037793;23;20098;-80
2021/08/10 04:29:58;;;;;;;7.15;4.35;;;;;;;17.37;65.95;99788.38;6038275;23;20394;-80
2021/08/10 04:32:25;;;;;;;5.43;4.18;;;;;;;17.39;65.11;99799.75;6039591;23;20066;-80
2021/08/10 04:34:52;;;;;;;7.53;4.38;;;;;;;17.40;65.28;99796.13;6038207;23;20481;-80
2021/08/10 04:37:18;;;;;;;9.35;4.82;;;;;;;17.41;65.40;99800.47;6038220;23;20123;-80
2021/08/10 04:39:56;;;;;;;8.13;4.72;;;;;;;17.39;66.41;99803.28;6037774;23;20034;-80
2021/08/10 04:42:23;;;;;;;7.70;4.80;;;;;;;17.44;65.50;99810.84;6039881;23;20095;-80
2021/08/10 04:45:03;;;;;;;7.03;5.18;;;;;;;17.39;67.11;99811.25;6041346;23;20394;-80
2021/08/10 04:47:30;;;;;;;7.97;4.85;;;;;;;17.45;65.46;99815.19;6039957;23;20408;-80
2021/08/10 04:50:04;;;;;;;6.38;4.32;;;;;;;17.41;66.44;99809.31;6039688;23;20106;-80
2021/08/10 04:52:31;;;;;;;7.22;4.55;;;;;;;17.43;65.44;99803.84;6039593;23;20098;-80
2021/08/10 04:55:00;;;;;;;6.57;4.57;;;;;;;17.43;65.77;99801.19;6039226;23;20097;-80
2021/08/10 04:57:26;;;;;;;10.18;5.32;;;;;;;17.44;65.45;99803.72;6039544;23;20133;-80
2021/08/10 04:59:54;;;;;;;6.90;4.60;;;;;;;17.44;65.88;99810.84;6041343;23;20451;-80
2021/08/10 05:02:21;;;;;;;9.02;5.03;;;;;;;17.45;65.89;99809.88;6039864;23;20406;-80
2021/08/10 05:04:48;;;;;;;6.68;4.38;;;;;;;17.47;65.92;99813.25;6039143;23;20065;-80
2021/08/10 05:07:16;;;;;;;7.50;4.65;;;;;;;17.50;65.79;99804.16;6039938;23;20055;-80
2021/08/10 05:09:43;;;;;;;6.30;4.22;;;;;;;17.51;65.87;99813.84;6039495;23;20106;-81
2021/08/10 05:12:10;;;;;;;8.10;4.65;;;;;;;17.52;65.91;99813.72;6039932;23;20320;-80
2021/08/10 05:14:37;;;;;;;6.15;4.85;;;;;;;17.54;65.84;99822.38;6039111;23;20066;-80
2021/08/10 05:17:06;;;;;;;10.93;4.70;;;;;;;17.55;66.46;99821.44;6039647;23;20079;-80
2021/08/10 05:19:33;;;;;;;8.45;4.75;;;;;;;17.58;65.97;99810.50;6039212;23;20070;-80
2021/08/10 05:22:22;;;;;;;7.53;4.75;;;;;;;17.56;66.75;99809.81;6039104;23;20102;-81
2021/08/10 05:24:48;;;;;;;5.53;4.30;;;;;;;17.64;65.84;99817.13;6038883;23;20058;-81
2021/08/10 05:27:28;;;;;;;7.53;5.00;;;;;;;17.61;66.50;99812.09;6039149;23;20059;-81
2021/08/10 05:29:55;;;;;;;8.85;5.25;;;;;;;17.66;65.66;99817.00;6038974;23;20023;-81
2021/08/10 05:32:41;;;;;;;9.85;4.63;;;;;;;17.62;66.60;99823.56;6040641;23;20063;-81
2021/08/10 05:35:24;;;;;;;6.80;4.72;;;;;;;17.67;65.73;99826.66;6038878;23;20027;-81
2021/08/10 05:37:51;;;;;;;7.38;4.72;;;;;;;17.67;65.76;99821.34;6038961;23;20027;-82
2021/08/10 05:40:18;;;;;;;8.55;4.53;;;;;;;17.68;66.05;99821.22;6039014;23;20059;-82
2021/08/10 05:42:45;;;;;;;7.93;4.75;;;;;;;17.71;66.22;99822.75;6038801;23;20063;-82
2021/08/10 05:45:14;;;;;;;7.53;4.60;;;;;;;17.74;66.23;99819.84;6038862;23;20028;-82
2021/08/10 05:47:41;;;;;;;7.22;4.53;;;;;;;17.78;66.26;99825.72;6039158;23;20034;-81
2021/08/10 05:50:14;;;;;;;9.18;4.57;;;;;;;17.79;67.00;99827.44;6038799;23;20490;-81
2021/08/10 05:52:41;;;;;;;10.45;5.13;;;;;;;17.83;66.07;99821.69;6038450;23;20055;-81
2021/08/10 05:55:08;;;;;;;6.82;4.88;;;;;;;17.88;66.16;99828.44;6038796;23;20502;-81
2021/08/10 05:57:36;;;;;;;6.88;4.32;;;;;;;17.91;66.22;99822.88;6038861;23;20410;-81
2021/08/10 06:00:03;;;;;;;7.07;4.57;;;;;;;17.94;66.28;99822.59;6038542;23;20054;-81
2021/08/10 06:02:34;;;;;;;6.70;4.20;;;;;;;17.97;66.85;99820.50;6038608;23;20083;-81
2021/08/10 06:05:04;;;;;;;8.05;4.72;;;;;;;18.01;66.25;99822.91;6038139;23;20081;-86
2021/08/10 06:07:31;;;;;;;8.75;4.85;;;;;;;18.05;66.00;99813.69;6039790;23;20073;-86
2021/08/10 06:09:59;;;;;;;8.43;4.38;;;;;;;18.06;66.02;99810.84;6038559;23;20107;-86
2021/08/10 06:12:25;;;;;;;7.15;4.10;;;;;;;18.10;65.90;99806.97;6039648;23;20077;-81
2021/08/10 06:14:55;;;;;;;6.45;4.18;;;;;;;18.10;66.08;99812.28;6038824;23;20463;-81
2021/08/10 06:17:22;;;;;;;8.27;4.00;;;;;;;18.14;65.97;99807.56;6039030;23;20102;-81
2021/08/10 06:19:49;;;;;;;8.27;4.07;;;;;;;18.17;65.92;99814.44;6038922;23;20031;-81
2021/08/10 06:22:29;;;;;;;6.00;3.78;;;;;;;18.18;66.43;99818.78;6038458;23;20098;-81
2021/08/10 06:24:56;;;;;;;7.05;3.80;;;;;;;18.26;65.85;99818.94;6038169;23;20069;-81
2021/08/10 06:27:41;;;;;;;6.93;4.15;;;;;;;18.26;66.13;99813.63;6038436;23;20063;-81
2021/08/10 06:30:10;;;;;;;7.13;4.03;;;;;;;18.34;66.06;99816.44;6038455;23;20058;-81
2021/08/10 06:32:36;;;;;;;6.03;4.00;;;;;;;18.39;65.82;99820.53;6038770;23;20471;-81
2021/08/10 06:35:03;;;;;;;8.70;3.90;;;;;;;18.46;65.97;99821.63;6038092;23;20110;-81
2021/08/10 06:37:30;;;;;;;6.15;3.65;;;;;;;18.54;65.98;99818.31;6038695;23;20530;-81
2021/08/10 06:39:57;;;;;;;8.68;3.95;;;;;;;18.60;65.75;99818.59;6038308;23;20102;-81
2021/08/10 06:42:28;;;;;;;5.75;3.50;;;;;;;18.68;66.08;99825.03;6038083;23;20106;-81
2021/08/10 06:44:54;;;;;;;6.80;3.42;;;;;;;18.78;65.47;99817.06;6038717;23;20055;-81
2021/08/10 06:47:21;;;;;;;6.63;3.60;;;;;;;18.87;65.27;99816.22;6039837;23;20101;-81
2021/08/10 06:49:49;;;;;;;7.15;3.35;;;;;;;18.95;64.88;99816.34;6038616;23;20106;-81
2021/08/10 06:52:15;;;;;;;9.35;3.20;;;;;;;19.04;64.71;99813.81;6038560;23;20406;-81
2021/08/10 06:54:44;;;;;;;6.47;3.33;;;;;;;19.12;64.29;99814.84;6038177;23;20098;-81
2021/08/10 06:57:10;;;;;;;8.80;3.88;;;;;;;19.19;64.16;99820.47;6038050;23;20028;-81
2021/08/10 06:59:41;;;;;;;5.97;3.53;;;;;;;19.23;63.28;99813.00;6038220;23;20094;-81
2021/08/10 07:02:11;;;;;;;5.63;3.53;;;;;;;19.29;63.34;99817.78;6037797;23;20059;-85
2021/08/10 07:04:38;;;;;;;6.22;3.88;;;;;;;19.31;62.58;99830.97;6037170;23;20102;-86
2021/08/10 07:07:06;;;;;;;7.03;3.65;;;;;;;19.29;62.18;99825.78;6037946;23;20392;-86
2021/08/10 07:09:33;;;;;;;5.38;3.30;;;;;;;19.29;62.40;99822.28;6038146;23;20046;-81
2021/08/10 07:12:00;;;;;;;7.72;3.97;;;;;;;19.27;61.95;99823.25;6038453;23;20355;-81
2021/08/10 07:14:26;;;;;;;4.93;3.35;;;;;;;19.26;62.30;99826.88;6037506;23;20027;-81
2021/08/10 07:16:54;;;;;;;5.93;3.70;;;;;;;19.26;62.29;99834.06;6037731;23;20451;-81
2021/08/10 07:19:21;;;;;;;6.03;3.28;;;;;;;19.26;62.08;99823.41;6038031;23;20355;-81
2021/08/10 07:21:50;;;;;;;10.40;3.50;;;;;;;19.26;61.85;99821.56;6037649;23;20102;-81
2021/08/10 07:24:19;;;;;;;7.50;3.28;;;;;;;19.28;61.70;99824.09;6037446;23;20054;-81
2021/08/10 07:26:46;;;;;;;5.80;3.53;;;;;;;19.30;61.95;99832.81;6037655;23;20058;-81
2021/08/10 07:29:13;;;;;;;4.95;3.38;;;;;;;19.32;61.54;99822.81;6037941;23;20031;-80
2021/08/10 07:31:41;;;;;;;7.07;3.63;;;;;;;19.34;61.04;99823.53;6037404;23;20106;-82
2021/08/10 07:34:07;;;;;;;5.18;3.55;;;;;;;19.36;61.58;99829.56;6037776;23;20519;-82
2021/08/10 07:36:35;;;;;;;4.45;3.35;;;;;;;19.38;61.19;99827.59;6037861;23;20463;-81
2021/08/10 07:39:04;;;;;;;6.38;3.25;;;;;;;19.43;61.06;99824.47;6037699;23;20034;-82
2021/08/10 07:41:30;;;;;;;5.78;3.70;;;;;;;19.46;60.71;99834.88;6037679;23;20133;-86
2021/08/10 07:44:04;;;;;;;4.50;2.90;;;;;;;19.48;61.12;99837.41;6038809;23;20102;-86
2021/08/10 07:46:30;;;;;;;5.10;2.97;;;;;;;19.55;61.10;99827.81;6038055;23;20420;-86
2021/08/10 07:48:57;;;;;;;7.20;3.28;;;;;;;19.60;60.46;99830.91;6038077;23;20028;-86
2021/08/10 07:51:24;;;;;;;6.55;3.65;;;;;;;19.64;60.50;99832.31;6037423;23;20063;-86
2021/08/10 07:53:51;;;;;;;6.68;3.80;;;;;;;19.72;60.18;99838.75;6037735;23;20055;-86
2021/08/10 07:56:23;;;;;;;4.93;2.90;;;;;;;19.75;59.46;99833.13;6038038;23;20398;-86
2021/08/10 07:58:50;;;;;;;5.13;3.08;;;;;;;19.84;60.01;99832.22;6037594;23;20106;-86
2021/08/10 08:01:16;;;;;;;5.35;3.45;;;;;;;19.89;59.60;99831.81;6037580;23;20059;-86
2021/08/10 08:03:44;;;;;;;4.72;3.42;;;;;;;19.96;59.62;99832.88;6038002;23;20027;-86
2021/08/10 08:06:11;;;;;;;8.13;3.40;;;;;;;20.01;59.58;99833.34;6037273;23;20027;-86
2021/08/10 08:08:44;;;;;;;4.65;3.08;;;;;;;20.07;59.59;99833.72;6037640;23;20073;-86
2021/08/10 08:11:10;;;;;;;5.85;3.25;;;;;;;20.17;59.66;99834.53;6037642;23;20027;-86
2021/08/10 08:13:40;;;;;;;5.38;3.08;;;;;;;20.23;58.62;99836.63;6037776;23;20467;-87
2021/08/10 08:16:07;;;;;;;7.45;3.35;;;;;;;20.33;58.98;99833.03;6038230;23;20062;-87
2021/08/10 08:18:37;;;;;;;7.38;3.72;;;;;;;20.37;58.03;99832.56;6039892;23;20034;-86
2021/08/10 08:21:04;;;;;;;6.68;3.67;;;;;;;20.48;58.39;99838.72;6039544;23;20102;-86
2021/08/10 08:23:32;;;;;;;6.93;3.38;;;;;;;20.53;57.37;99831.09;6039366;23;20115;-86
2021/08/10 08:26:00;;;;;;;7.47;3.70;;;;;;;20.59;57.11;99825.13;6039572;23;20029;-86
2021/08/10 08:28:26;;;;;;;7.38;3.33;;;;;;;20.68;57.31;99826.06;6039453;23;20079;-86
2021/08/10 08:30:53;;;;;;;5.85;3.50;;;;;;;20.73;56.26;99826.44;6039401;23;20106;-86
2021/08/10 08:33:22;;;;;;;4.80;3.47;;;;;;;20.79;55.58;99827.66;6039662;23;20030;-86
2021/08/10 08:35:49;;;;;;;6.68;3.45;;;;;;;20.87;56.19;99833.13;6041035;23;20106;-86
2021/08/10 08:38:16;;;;;;;5.30;3.05;;;;;;;20.93;56.66;99834.34;6039153;23;20073;-86
2021/08/10 08:40:45;;;;;;;10.48;3.72;;;;;;;20.98;56.03;99825.84;6039348;23;20074;-86
2021/08/10 08:43:16;;;;;;;6.60;3.72;;;;;;;21.03;55.69;99835.09;6039465;23;20045;-86
2021/08/10 08:45:43;;;;;;;6.00;3.40;;;;;;;21.11;56.51;99830.81;6040834;23;20406;-86
2021/08/10 08:48:13;;;;;;;5.88;3.03;;;;;;;21.18;56.43;99835.41;6039499;23;20030;-86
2021/08/10 08:50:43;;;;;;;6.95;3.25;;;;;;;21.30;55.75;99824.44;6039078;23;20065;-86
2021/08/10 08:53:14;;;;;;;7.57;4.28;;;;;;;21.40;55.29;99829.69;6039440;23;20471;-86
2021/08/10 08:55:46;;;;;;;8.13;3.88;;;;;;;21.53;55.48;99823.94;6039312;23;20462;-86
2021/08/10 08:58:14;;;;;;;5.35;3.65;;;;;;;21.65;55.70;99830.72;6039002;23;20078;-87
2021/08/10 09:00:41;;;;;;;5.32;3.45;;;;;;;21.77;54.85;99830.44;6039143;23;20034;-87
2021/08/10 09:03:28;;;;;;;5.97;3.55;;;;;;;21.81;53.34;99837.16;6040718;23;20114;-81
2021/08/10 09:05:56;;;;;;;4.85;3.58;;;;;;;21.91;54.27;99824.50;6061462;23;20118;-81
2021/08/10 09:08:43;;;;;;;4.38;3.47;;;;;;;21.91;52.84;99824.50;6044214;23;20105;-81
2021/08/10 09:13:59;;;;;;;7.28;3.47;;;;;;;22.03;52.92;99822.38;6069024;23;20093;-81
2021/08/10 09:17:01;;;;;;;5.03;3.20;;;;;;;22.00;53.29;99822.69;6044392;23;20335;-81
2021/08/10 09:19:43;;;;;;;4.68;3.42;;;;;;;22.05;52.65;99822.22;6044012;23;20102;-81
2021/08/10 09:22:17;;;;;;;6.88;3.92;;;;;;;22.11;52.73;99837.66;6044580;23;20398;-81
2021/08/10 09:24:55;;;;;;;5.03;3.53;;;;;;;22.16;52.40;99826.47;6043831;23;20062;-81
2021/08/10 09:27:42;;;;;;;5.32;3.55;;;;;;;22.22;52.23;99818.59;6043393;23;20105;-81
2021/08/10 09:30:11;;;;;;;5.60;3.80;;;;;;;22.34;53.45;99818.28;6043843;23;20033;-81
2021/08/10 09:33:00;;;;;;;6.97;3.42;;;;;;;22.40;52.67;99823.00;6043844;23;20069;-81
2021/08/10 09:35:33;;;;;;;7.65;3.83;;;;;;;22.54;52.45;99813.47;6043985;23;20399;-81
2021/08/10 09:38:07;;;;;;;5.95;3.80;;;;;;;22.66;51.88;99819.41;6044824;23;20454;-82
2021/08/10 09:40:54;;;;;;;5.63;3.65;;;;;;;22.77;51.97;99819.06;6044153;23;20514;-81
2021/08/10 09:43:28;;;;;;;5.72;3.58;;;;;;;22.90;51.93;99815.06;6043879;23;20090;-82
2021/08/10 09:46:16;;;;;;;5.75;3.63;;;;;;;22.95;51.55;99815.38;6043867;23;20054;-81
2021/08/10 09:48:49;;;;;;;4.90;3.58;;;;;;;23.07;51.87;99823.13;6043893;23;20055;-81
2021/08/10 09:51:21;;;;;;;7.10;3.53;;;;;;;23.13;50.83;99817.06;6043819;23;20054;-80
2021/08/10 09:54:21;;;;;;;5.73;3.60;;;;;;;23.18;51.10;99825.47;6043657;23;20106;-81
2021/08/10 09:56:55;;;;;;;5.88;3.83;;;;;;;23.34;52.89;99819.28;6017937;23;20263;-81
2021/08/10 09:59:24;;;;;;;5.45;3.72;;;;;;;23.50;52.72;99825.63;6043251;23;20057;-82
2021/08/10 10:01:55;;;;;;;4.15;3.25;;;;;;;23.65;52.31;99823.06;6043934;23;20149;-86
2021/08/10 10:04:28;;;;;;;6.40;3.78;;;;;;;23.79;51.44;99824.22;6043186;23;20027;-86
2021/08/10 10:07:08;;;;;;;5.03;3.50;;;;;;;23.87;51.27;99812.59;6043384;23;20062;-86
2021/08/10 10:09:35;;;;;;;5.53;3.33;;;;;;;23.91;50.95;99819.28;6068647;23;20069;-86
2021/08/10 10:12:04;;;;;;;4.53;3.20;;;;;;;23.93;50.28;99822.66;6043179;23;20094;-86
2021/08/10 10:14:32;;;;;;;5.22;3.40;;;;;;;23.94;50.44;99816.28;6043151;23;20093;-86
2021/08/10 10:17:00;;;;;;;9.18;3.88;;;;;;;23.95;49.70;99820.63;6043270;23;20250;-86
2021/08/10 10:19:27;;;;;;;8.73;3.72;;;;;;;23.93;49.94;99819.97;6043695;23;20102;-86
2021/08/10 10:22:03;;;;;;;6.05;3.40;;;;;;;23.89;49.50;99819.47;6043178;23;20097;-87
2021/08/10 10:24:39;;;;;;;5.25;3.47;;;;;;;23.88;48.93;99812.41;6043039;23;20069;-86
2021/08/10 10:27:07;;;;;;;5.18;2.90;;;;;;;23.93;50.49;99804.66;6039411;23;20098;-81
2021/08/10 10:29:34;;;;;;;5.63;3.80;;;;;;;24.00;49.85;99804.81;6043800;23;20367;-81
2021/08/10 10:32:01;;;;;;;6.18;3.30;;;;;;;24.07;50.00;99797.72;6043732;23;20517;-81
2021/08/10 10:34:30;;;;;;;7.20;3.35;;;;;;;24.14;49.46;99803.28;6043265;23;20058;-81
2021/08/10 10:36:59;;;;;;;3.50;3.10;;;;;;;24.21;50.61;99800.72;6068938;23;20073;-81
2021/08/10 10:39:39;;;;;;;5.22;3.10;;;;;;;24.26;47.39;99809.09;6043385;23;20026;-81
2021/08/10 10:42:12;;;;;;;5.90;3.25;;;;;;;24.36;48.90;99806.19;6043655;23;20496;-81
2021/08/10 10:44:50;;;;;;;5.05;3.10;;;;;;;24.37;48.21;99807.03;6042896;23;20101;-81
2021/08/10 10:47:28;;;;;;;6.53;3.33;;;;;;;24.37;48.52;99807.03;6043810;23;20031;-81
2021/08/10 10:50:00;;;;;;;4.13;2.60;;;;;;;24.34;48.15;99800.97;6043554;23;20065;-81
2021/08/10 10:52:29;;;;;;;4.70;2.83;;;;;;;24.36;48.53;99799.97;6043440;23;20101;-81
2021/08/10 10:54:59;;;;;;;3.28;2.53;;;;;;;24.36;47.88;99811.56;6043516;23;20055;-81
2021/08/10 10:57:28;;;;;;;5.75;2.90;;;;;;;24.40;47.54;99807.50;6043143;23;20097;-82
2021/08/10 10:59:58;;;;;;;3.47;2.50;;;;;;;24.46;46.83;99804.13;6042974;23;20082;-82
2021/08/10 11:02:26;;;;;;;4.20;2.65;;;;;;;24.58;48.02;99796.47;6067975;23;20109;-82
2021/08/10 11:05:23;;;;;;;4.05;2.45;;;;;;;24.73;48.23;99803.75;6037715;23;20023;-82
2021/08/10 11:07:55;;;;;;;3.58;2.70;;;;;;;25.04;46.84;99804.75;6024457;23;20474;-81
2021/08/10 11:10:46;;;;;;;3.63;2.60;;;;;;;25.35;47.68;99801.06;6038435;23;20415;-81
2021/08/10 11:13:19;;;;;;;4.00;3.00;;;;;;;25.78;47.14;99797.78;6037976;23;20073;-82
2021/08/10 11:15:47;;;;;;;;;;;;;;;26.14;45.05;99807.78;6039770;23;20497;-82
2021/08/10 11:18:14;;;;;;;6.35;2.67;;;;;;;26.70;48.49;99792.00;6038018;23;19969;-87
2021/08/10 11:20:46;;;;;;;5.35;3.25;;;;;;;27.11;45.03;99801.31;6037861;23;20034;-82
2021/08/10 11:23:23;;;;;;;3.17;2.45;;;;;;;27.43;44.37;99804.44;6037951;23;20126;-81
2021/08/10 11:26:05;;;;;;;4.00;3.22;;;;;;;27.73;43.47;99798.00;6037417;23;20043;-87
2021/08/10 11:28:36;;;;;;;3.58;2.58;;;;;;;28.05;44.36;99805.63;6038298;23;20054;-87
2021/08/10 11:31:04;;;;;;;3.58;2.60;;;;;;;28.29;42.69;99798.88;6037960;23;20066;-82
2021/08/10 11:33:34;;;;;;;3.17;2.65;;;;;;;28.41;41.93;99804.53;6037903;23;20031;-82
2021/08/10 11:38:44;;;;;;;2.60;2.15;;;;;;;28.36;41.28;99815.13;6039561;23;20027;-81
2021/08/10 11:41:14;;;;;;;2.53;2.00;;;;;;;28.35;40.85;99816.19;6037795;23;20027;-82
2021/08/10 11:43:45;;;;;;;3.10;2.78;;;;;;;28.30;40.76;99813.25;6037954;23;20066;-82
2021/08/10 11:46:26;;;;;;;3.28;2.55;;;;;;;28.15;40.06;99825.06;6038191;23;20396;-82
2021/08/10 11:48:58;;;;;;;3.55;2.15;;;;;;;28.03;40.55;99805.00;6037990;23;20020;-82
2021/08/10 11:51:41;;;;;;;4.15;2.50;;;;;;;28.06;42.01;99785.66;6037454;23;20063;-82
2021/08/10 11:54:10;;;;;;;2.83;2.58;;;;;;;28.29;41.55;99796.16;6038091;23;20024;-82
2021/08/10 11:56:42;;;;;;;2.83;2.13;;;;;;;28.56;41.86;99787.28;6037583;23;20070;-82
2021/08/10 11:59:20;;;;;;;2.95;2.42;;;;;;;28.88;41.63;99793.78;6039647;23;20351;-84